sensor_id;sensor_type;location;lat;lon;timestamp;pressure;altitude;pressure_sealevel;temperature;humidity
68380;BME280;57711;53.196;19.638;2022-11-13T00:02:57;101768.66;;;11.35;74.86
68380;BME280;57711;53.196;19.638;2022-11-13T00:05:43;101772.84;;;11.38;74.87
68380;BME280;57711;53.196;19.638;2022-11-13T00:08:28;101772.64;;;11.44;74.91
68380;BME280;57711;53.196;19.638;2022-11-13T00:11:17;101767.36;;;11.46;74.78
68380;BME280;57711;53.196;19.638;2022-11-13T00:14:04;101765.13;;;11.45;74.86
68380;BME280;57711;53.196;19.638;2022-11-13T00:16:50;101763.41;;;11.43;75.01
68380;BME280;57711;53.196;19.638;2022-11-13T00:19:36;101761.23;;;11.44;74.85
68380;BME280;57711;53.196;19.638;2022-11-13T00:22:22;101749.94;;;11.44;74.89
68380;BME280;57711;53.196;19.638;2022-11-13T00:25:08;101752.49;;;11.47;74.84
68380;BME280;57711;53.196;19.638;2022-11-13T00:27:54;101749.11;;;11.49;75.00
68380;BME280;57711;53.196;19.638;2022-11-13T00:30:39;101748.13;;;11.50;74.70
68380;BME280;57711;53.196;19.638;2022-11-13T00:33:25;101752.16;;;11.52;74.81
68380;BME280;57711;53.196;19.638;2022-11-13T00:36:30;101749.35;;;11.56;74.78
68380;BME280;57711;53.196;19.638;2022-11-13T00:39:16;101754.60;;;11.58;74.74
68380;BME280;57711;53.196;19.638;2022-11-13T00:42:02;101754.60;;;11.58;74.94
68380;BME280;57711;53.196;19.638;2022-11-13T00:44:47;101751.82;;;11.57;74.97
68380;BME280;57711;53.196;19.638;2022-11-13T00:47:33;101752.30;;;11.55;74.98
68380;BME280;57711;53.196;19.638;2022-11-13T00:50:19;101751.74;;;11.55;74.97
68380;BME280;57711;53.196;19.638;2022-11-13T00:53:05;101754.89;;;11.57;74.96
68380;BME280;57711;53.196;19.638;2022-11-13T00:55:50;101749.84;;;11.59;74.86
68380;BME280;57711;53.196;19.638;2022-11-13T00:58:36;101744.77;;;11.62;74.93
68380;BME280;57711;53.196;19.638;2022-11-13T01:01:22;101744.93;;;11.62;74.83
68380;BME280;57711;53.196;19.638;2022-11-13T01:04:07;101749.39;;;11.63;74.74
68380;BME280;57711;53.196;19.638;2022-11-13T01:06:53;101744.19;;;11.62;74.85
68380;BME280;57711;53.196;19.638;2022-11-13T01:09:40;101743.84;;;11.62;74.84
68380;BME280;57711;53.196;19.638;2022-11-13T01:12:26;101742.42;;;11.61;75.01
68380;BME280;57711;53.196;19.638;2022-11-13T01:15:11;101741.08;;;11.57;74.67
68380;BME280;57711;53.196;19.638;2022-11-13T01:17:57;101739.66;;;11.54;74.77
68380;BME280;57711;53.196;19.638;2022-11-13T01:20:44;101741.71;;;11.53;74.74
68380;BME280;57711;53.196;19.638;2022-11-13T01:23:29;101737.72;;;11.53;74.80
68380;BME280;57711;53.196;19.638;2022-11-13T01:26:18;101736.42;;;11.56;74.76
68380;BME280;57711;53.196;19.638;2022-11-13T01:29:04;101734.27;;;11.56;74.78
68380;BME280;57711;53.196;19.638;2022-11-13T01:31:51;101733.20;;;11.53;75.01
68380;BME280;57711;53.196;19.638;2022-11-13T01:34:37;101739.59;;;11.50;74.94
68380;BME280;57711;53.196;19.638;2022-11-13T01:37:23;101729.31;;;11.47;74.85
68380;BME280;57711;53.196;19.638;2022-11-13T01:40:09;101731.40;;;11.43;74.85
68380;BME280;57711;53.196;19.638;2022-11-13T01:42:56;101730.36;;;11.40;74.84
68380;BME280;57711;53.196;19.638;2022-11-13T01:48:47;101719.77;;;11.36;74.86
68380;BME280;57711;53.196;19.638;2022-11-13T01:51:38;101720.36;;;11.35;74.68
68380;BME280;57711;53.196;19.638;2022-11-13T01:54:27;101721.15;;;11.34;74.69
68380;BME280;57711;53.196;19.638;2022-11-13T01:57:15;101721.10;;;11.34;74.87
68380;BME280;57711;53.196;19.638;2022-11-13T02:00:05;101720.16;;;11.35;74.85
68380;BME280;57711;53.196;19.638;2022-11-13T02:02:52;101714.90;;;11.32;75.01
68380;BME280;57711;53.196;19.638;2022-11-13T02:05:37;101716.70;;;11.30;75.09
68380;BME280;57711;53.196;19.638;2022-11-13T02:08:23;101712.11;;;11.28;75.04
68380;BME280;57711;53.196;19.638;2022-11-13T02:11:11;101711.07;;;11.25;74.96
68380;BME280;57711;53.196;19.638;2022-11-13T02:13:59;101711.02;;;11.23;74.92
68380;BME280;57711;53.196;19.638;2022-11-13T02:16:46;101709.95;;;11.23;75.00
68380;BME280;57711;53.196;19.638;2022-11-13T02:19:37;101713.19;;;11.23;74.89
68380;BME280;57711;53.196;19.638;2022-11-13T02:22:39;101710.77;;;11.21;74.87
68380;BME280;57711;53.196;19.638;2022-11-13T02:25:29;101717.33;;;11.18;75.07
68380;BME280;57711;53.196;19.638;2022-11-13T02:28:16;101718.70;;;11.14;74.90
68380;BME280;57711;53.196;19.638;2022-11-13T02:31:08;101714.96;;;11.10;75.03
68380;BME280;57711;53.196;19.638;2022-11-13T02:33:54;101708.37;;;11.09;75.03
68380;BME280;57711;53.196;19.638;2022-11-13T02:36:40;101708.60;;;11.08;75.07
68380;BME280;57711;53.196;19.638;2022-11-13T02:39:26;101708.34;;;11.09;75.20
68380;BME280;57711;53.196;19.638;2022-11-13T02:42:11;101699.17;;;11.11;75.04
68380;BME280;57711;53.196;19.638;2022-11-13T02:44:57;101699.44;;;11.12;75.16
68380;BME280;57711;53.196;19.638;2022-11-13T02:47:44;101698.73;;;11.15;75.21
68380;BME280;57711;53.196;19.638;2022-11-13T02:50:30;101696.11;;;11.19;75.13
68380;BME280;57711;53.196;19.638;2022-11-13T02:53:16;101694.98;;;11.20;74.94
68380;BME280;57711;53.196;19.638;2022-11-13T02:56:02;101694.05;;;11.17;75.08
68380;BME280;57711;53.196;19.638;2022-11-13T02:58:48;101691.54;;;11.11;74.95
68380;BME280;57711;53.196;19.638;2022-11-13T03:01:33;101695.95;;;11.05;75.01
68380;BME280;57711;53.196;19.638;2022-11-13T03:04:19;101696.00;;;11.02;75.11
68380;BME280;57711;53.196;19.638;2022-11-13T03:07:05;101695.24;;;11.02;75.16
68380;BME280;57711;53.196;19.638;2022-11-13T03:09:51;101698.81;;;11.03;75.23
68380;BME280;57711;53.196;19.638;2022-11-13T03:12:37;101697.91;;;11.06;75.17
68380;BME280;57711;53.196;19.638;2022-11-13T03:15:23;101691.45;;;11.08;75.06
68380;BME280;57711;53.196;19.638;2022-11-13T03:18:09;101695.34;;;11.09;75.26
68380;BME280;57711;53.196;19.638;2022-11-13T03:20:56;101690.98;;;11.12;75.17
68380;BME280;57711;53.196;19.638;2022-11-13T03:23:42;101684.70;;;11.13;75.06
68380;BME280;57711;53.196;19.638;2022-11-13T03:26:31;101682.25;;;11.12;75.17
68380;BME280;57711;53.196;19.638;2022-11-13T03:29:16;101679.69;;;11.10;75.03
68380;BME280;57711;53.196;19.638;2022-11-13T03:32:02;101684.77;;;11.08;74.99
68380;BME280;57711;53.196;19.638;2022-11-13T03:34:48;101689.11;;;11.05;75.14
68380;BME280;57711;53.196;19.638;2022-11-13T03:37:33;101695.77;;;11.05;75.02
68380;BME280;57711;53.196;19.638;2022-11-13T03:40:19;101697.00;;;11.06;75.19
68380;BME280;57711;53.196;19.638;2022-11-13T03:43:05;101700.85;;;11.05;75.17
68380;BME280;57711;53.196;19.638;2022-11-13T03:45:50;101706.83;;;11.08;75.20
68380;BME280;57711;53.196;19.638;2022-11-13T03:48:36;101706.23;;;11.11;75.12
68380;BME280;57711;53.196;19.638;2022-11-13T03:51:22;101708.15;;;11.12;75.13
68380;BME280;57711;53.196;19.638;2022-11-13T03:54:07;101711.64;;;11.14;75.22
68380;BME280;57711;53.196;19.638;2022-11-13T03:56:53;101710.62;;;11.16;75.17
68380;BME280;57711;53.196;19.638;2022-11-13T03:59:39;101711.23;;;11.15;75.31
68380;BME280;57711;53.196;19.638;2022-11-13T04:02:24;101712.52;;;11.12;75.28
68380;BME280;57711;53.196;19.638;2022-11-13T04:05:10;101713.14;;;11.11;75.20
68380;BME280;57711;53.196;19.638;2022-11-13T04:07:55;101717.06;;;11.09;75.26
68380;BME280;57711;53.196;19.638;2022-11-13T04:10:41;101714.30;;;11.07;75.10
68380;BME280;57711;53.196;19.638;2022-11-13T04:13:27;101715.28;;;11.08;75.31
68380;BME280;57711;53.196;19.638;2022-11-13T04:16:12;101714.48;;;11.09;75.03
68380;BME280;57711;53.196;19.638;2022-11-13T04:18:58;101716.23;;;11.11;75.23
68380;BME280;57711;53.196;19.638;2022-11-13T04:21:43;101722.27;;;11.10;75.02
68380;BME280;57711;53.196;19.638;2022-11-13T04:24:29;101720.16;;;11.06;75.10
68380;BME280;57711;53.196;19.638;2022-11-13T04:27:15;101721.11;;;11.05;75.29
68380;BME280;57711;53.196;19.638;2022-11-13T04:30:01;101723.09;;;11.03;75.34
68380;BME280;57711;53.196;19.638;2022-11-13T04:32:46;101723.50;;;11.00;75.33
68380;BME280;57711;53.196;19.638;2022-11-13T04:35:32;101720.88;;;10.98;75.19
68380;BME280;57711;53.196;19.638;2022-11-13T04:38:17;101716.62;;;10.97;75.31
68380;BME280;57711;53.196;19.638;2022-11-13T04:41:04;101715.20;;;10.96;75.03
68380;BME280;57711;53.196;19.638;2022-11-13T04:44:08;101721.67;;;10.97;75.28
68380;BME280;57711;53.196;19.638;2022-11-13T04:46:53;101722.96;;;10.99;75.38
68380;BME280;57711;53.196;19.638;2022-11-13T04:49:39;101723.70;;;11.02;75.26
68380;BME280;57711;53.196;19.638;2022-11-13T04:52:25;101726.39;;;11.05;75.31
68380;BME280;57711;53.196;19.638;2022-11-13T04:55:12;101723.02;;;11.07;75.36
68380;BME280;57711;53.196;19.638;2022-11-13T04:57:58;101722.04;;;11.08;75.12
68380;BME280;57711;53.196;19.638;2022-11-13T05:00:44;101722.73;;;11.08;75.30
68380;BME280;57711;53.196;19.638;2022-11-13T05:03:29;101727.02;;;11.09;75.23
68380;BME280;57711;53.196;19.638;2022-11-13T05:06:15;101721.96;;;11.11;75.47
68380;BME280;57711;53.196;19.638;2022-11-13T05:09:01;101719.02;;;11.15;75.44
68380;BME280;57711;53.196;19.638;2022-11-13T05:11:47;101719.02;;;11.17;75.29
68380;BME280;57711;53.196;19.638;2022-11-13T05:14:36;101726.71;;;11.19;75.21
68380;BME280;57711;53.196;19.638;2022-11-13T05:17:22;101725.97;;;11.19;75.25
68380;BME280;57711;53.196;19.638;2022-11-13T05:20:08;101725.95;;;11.20;75.35
68380;BME280;57711;53.196;19.638;2022-11-13T05:22:54;101722.72;;;11.19;75.26
68380;BME280;57711;53.196;19.638;2022-11-13T05:25:40;101717.48;;;11.16;75.18
68380;BME280;57711;53.196;19.638;2022-11-13T05:28:25;101722.71;;;11.13;75.30
68380;BME280;57711;53.196;19.638;2022-11-13T05:31:14;101722.47;;;11.14;75.41
68380;BME280;57711;53.196;19.638;2022-11-13T05:34:02;101720.44;;;11.15;75.29
68380;BME280;57711;53.196;19.638;2022-11-13T05:36:50;101726.59;;;11.18;75.15
68380;BME280;57711;53.196;19.638;2022-11-13T05:39:36;101727.26;;;11.21;75.27
68380;BME280;57711;53.196;19.638;2022-11-13T05:42:22;101731.16;;;11.25;75.39
68380;BME280;57711;53.196;19.638;2022-11-13T05:45:07;101735.30;;;11.28;75.28
68380;BME280;57711;53.196;19.638;2022-11-13T05:47:53;101733.75;;;11.29;75.47
68380;BME280;57711;53.196;19.638;2022-11-13T05:50:39;101736.89;;;11.29;75.44
68380;BME280;57711;53.196;19.638;2022-11-13T05:53:25;101737.10;;;11.28;75.41
68380;BME280;57711;53.196;19.638;2022-11-13T05:56:24;101738.18;;;11.31;75.47
68380;BME280;57711;53.196;19.638;2022-11-13T05:59:10;101736.33;;;11.34;75.25
68380;BME280;57711;53.196;19.638;2022-11-13T06:01:56;101736.17;;;11.37;75.52
68380;BME280;57711;53.196;19.638;2022-11-13T06:04:42;101737.59;;;11.40;75.30
68380;BME280;57711;53.196;19.638;2022-11-13T06:07:28;101738.48;;;11.43;75.43
68380;BME280;57711;53.196;19.638;2022-11-13T06:10:13;101733.89;;;11.43;75.29
68380;BME280;57711;53.196;19.638;2022-11-13T06:12:59;101729.65;;;11.42;75.14
68380;BME280;57711;53.196;19.638;2022-11-13T06:15:45;101729.78;;;11.40;75.46
68380;BME280;57711;53.196;19.638;2022-11-13T06:18:31;101727.48;;;11.39;75.44
68380;BME280;57711;53.196;19.638;2022-11-13T06:21:21;101733.16;;;11.41;75.29
68380;BME280;57711;53.196;19.638;2022-11-13T06:24:09;101735.31;;;11.41;75.20
68380;BME280;57711;53.196;19.638;2022-11-13T06:26:55;101733.66;;;11.42;75.18
68380;BME280;57711;53.196;19.638;2022-11-13T06:29:41;101730.55;;;11.42;75.22
68380;BME280;57711;53.196;19.638;2022-11-13T06:32:27;101732.63;;;11.43;75.23
68380;BME280;57711;53.196;19.638;2022-11-13T06:35:13;101732.42;;;11.44;75.24
68380;BME280;57711;53.196;19.638;2022-11-13T06:37:59;101734.68;;;11.43;75.41
68380;BME280;57711;53.196;19.638;2022-11-13T06:40:45;101738.62;;;11.41;75.39
68380;BME280;57711;53.196;19.638;2022-11-13T06:43:31;101735.23;;;11.37;75.43
68380;BME280;57711;53.196;19.638;2022-11-13T06:46:18;101737.02;;;11.34;75.25
68380;BME280;57711;53.196;19.638;2022-11-13T06:49:04;101738.11;;;11.35;75.34
68380;BME280;57711;53.196;19.638;2022-11-13T06:51:50;101737.66;;;11.36;75.30
68380;BME280;57711;53.196;19.638;2022-11-13T06:54:35;101736.48;;;11.38;75.28
68380;BME280;57711;53.196;19.638;2022-11-13T06:57:21;101740.05;;;11.38;75.16
68380;BME280;57711;53.196;19.638;2022-11-13T07:00:07;101742.66;;;11.40;75.25
68380;BME280;57711;53.196;19.638;2022-11-13T07:02:53;101745.42;;;11.42;75.34
68380;BME280;57711;53.196;19.638;2022-11-13T07:05:39;101742.54;;;11.44;75.27
68380;BME280;57711;53.196;19.638;2022-11-13T07:08:25;101735.10;;;11.44;75.27
68380;BME280;57711;53.196;19.638;2022-11-13T07:11:13;101737.34;;;11.46;75.49
68380;BME280;57711;53.196;19.638;2022-11-13T07:13:59;101741.23;;;11.47;75.37
68380;BME280;57711;53.196;19.638;2022-11-13T07:16:45;101738.39;;;11.49;75.22
68380;BME280;57711;53.196;19.638;2022-11-13T07:19:51;101743.77;;;11.52;75.28
68380;BME280;57711;53.196;19.638;2022-11-13T07:22:36;101741.17;;;11.53;75.21
68380;BME280;57711;53.196;19.638;2022-11-13T07:25:23;101739.09;;;11.55;75.34
68380;BME280;57711;53.196;19.638;2022-11-13T07:28:09;101738.08;;;11.56;75.11
68380;BME280;57711;53.196;19.638;2022-11-13T07:30:58;101734.46;;;11.59;75.10
68380;BME280;57711;53.196;19.638;2022-11-13T07:33:47;101730.98;;;11.59;75.33
68380;BME280;57711;53.196;19.638;2022-11-13T07:36:32;101730.95;;;11.60;75.41
68380;BME280;57711;53.196;19.638;2022-11-13T07:39:18;101729.52;;;11.60;75.37
68380;BME280;57711;53.196;19.638;2022-11-13T07:42:04;101732.83;;;11.61;75.39
68380;BME280;57711;53.196;19.638;2022-11-13T07:44:49;101725.71;;;11.62;75.41
68380;BME280;57711;53.196;19.638;2022-11-13T07:47:40;101729.90;;;11.64;75.36
68380;BME280;57711;53.196;19.638;2022-11-13T07:50:27;101727.10;;;11.65;75.11
68380;BME280;57711;53.196;19.638;2022-11-13T07:53:13;101730.73;;;11.68;75.26
68380;BME280;57711;53.196;19.638;2022-11-13T07:56:00;101729.73;;;11.69;75.14
68380;BME280;57711;53.196;19.638;2022-11-13T07:58:46;101729.81;;;11.65;75.33
68380;BME280;57711;53.196;19.638;2022-11-13T08:01:32;101726.17;;;11.63;75.33
68380;BME280;57711;53.196;19.638;2022-11-13T08:04:18;101728.22;;;11.63;75.38
68380;BME280;57711;53.196;19.638;2022-11-13T08:07:03;101730.44;;;11.64;75.39
68380;BME280;57711;53.196;19.638;2022-11-13T08:09:49;101733.88;;;11.67;75.16
68380;BME280;57711;53.196;19.638;2022-11-13T08:12:35;101737.20;;;11.69;75.20
68380;BME280;57711;53.196;19.638;2022-11-13T08:15:20;101737.19;;;11.74;75.29
68380;BME280;57711;53.196;19.638;2022-11-13T08:18:06;101736.64;;;11.79;75.46
68380;BME280;57711;53.196;19.638;2022-11-13T08:20:51;101739.50;;;11.85;75.38
68380;BME280;57711;53.196;19.638;2022-11-13T08:23:37;101741.98;;;11.88;75.36
68380;BME280;57711;53.196;19.638;2022-11-13T08:26:22;101741.05;;;11.86;75.32
68380;BME280;57711;53.196;19.638;2022-11-13T08:29:08;101744.02;;;11.85;75.35
68380;BME280;57711;53.196;19.638;2022-11-13T08:31:53;101742.14;;;11.86;75.43
68380;BME280;57711;53.196;19.638;2022-11-13T08:34:39;101744.09;;;11.87;75.42
68380;BME280;57711;53.196;19.638;2022-11-13T08:37:25;101748.73;;;11.85;75.26
68380;BME280;57711;53.196;19.638;2022-11-13T08:40:11;101743.37;;;11.82;75.41
68380;BME280;57711;53.196;19.638;2022-11-13T08:42:58;101748.95;;;11.80;75.27
68380;BME280;57711;53.196;19.638;2022-11-13T08:45:45;101754.34;;;11.83;75.38
68380;BME280;57711;53.196;19.638;2022-11-13T08:48:32;101753.16;;;11.87;75.37
68380;BME280;57711;53.196;19.638;2022-11-13T08:51:18;101752.66;;;11.89;75.19
68380;BME280;57711;53.196;19.638;2022-11-13T08:54:04;101749.80;;;11.88;75.31
68380;BME280;57711;53.196;19.638;2022-11-13T08:56:50;101752.58;;;11.87;75.39
68380;BME280;57711;53.196;19.638;2022-11-13T08:59:40;101752.20;;;11.87;75.41
68380;BME280;57711;53.196;19.638;2022-11-13T09:02:26;101749.19;;;11.86;75.29
68380;BME280;57711;53.196;19.638;2022-11-13T09:05:12;101743.10;;;11.88;75.20
68380;BME280;57711;53.196;19.638;2022-11-13T09:07:59;101744.88;;;11.88;75.29
68380;BME280;57711;53.196;19.638;2022-11-13T09:10:45;101746.58;;;11.93;75.37
68380;BME280;57711;53.196;19.638;2022-11-13T09:13:32;101744.02;;;11.99;75.36
68380;BME280;57711;53.196;19.638;2022-11-13T09:16:21;101734.77;;;11.96;75.31
68380;BME280;57711;53.196;19.638;2022-11-13T09:19:07;101737.98;;;11.92;75.00
68380;BME280;57711;53.196;19.638;2022-11-13T09:21:53;101742.02;;;11.88;75.29
68380;BME280;57711;53.196;19.638;2022-11-13T09:24:39;101740.30;;;11.89;75.28
68380;BME280;57711;53.196;19.638;2022-11-13T09:27:24;101741.58;;;11.88;75.42
68380;BME280;57711;53.196;19.638;2022-11-13T09:30:11;101738.64;;;11.90;75.44
68380;BME280;57711;53.196;19.638;2022-11-13T09:32:59;101736.64;;;11.90;75.27
68380;BME280;57711;53.196;19.638;2022-11-13T09:35:44;101739.14;;;11.90;75.19
68380;BME280;57711;53.196;19.638;2022-11-13T09:38:30;101740.73;;;11.91;75.25
68380;BME280;57711;53.196;19.638;2022-11-13T09:41:20;101738.83;;;11.89;75.43
68380;BME280;57711;53.196;19.638;2022-11-13T09:44:14;101739.20;;;11.87;75.34
68380;BME280;57711;53.196;19.638;2022-11-13T09:49:53;101738.23;;;11.80;75.26
68380;BME280;57711;53.196;19.638;2022-11-13T09:52:43;101741.58;;;11.79;75.40
68380;BME280;57711;53.196;19.638;2022-11-13T09:55:33;101745.02;;;11.76;75.23
68380;BME280;57711;53.196;19.638;2022-11-13T09:58:29;101747.84;;;11.78;75.46
68380;BME280;57711;53.196;19.638;2022-11-13T10:01:40;101743.40;;;11.81;75.32
68380;BME280;57711;53.196;19.638;2022-11-13T10:13:42;101738.13;;;11.82;75.30
68380;BME280;57711;53.196;19.638;2022-11-13T10:16:33;101732.28;;;11.82;75.19
68380;BME280;57711;53.196;19.638;2022-11-13T10:19:25;101726.02;;;11.78;75.31
68380;BME280;57711;53.196;19.638;2022-11-13T10:22:23;101723.16;;;11.78;75.29
68380;BME280;57711;53.196;19.638;2022-11-13T10:25:23;101717.06;;;11.77;75.17
68380;BME280;57711;53.196;19.638;2022-11-13T10:28:19;101718.60;;;11.78;75.20
68380;BME280;57711;53.196;19.638;2022-11-13T10:31:27;101708.57;;;11.79;75.25
68380;BME280;57711;53.196;19.638;2022-11-13T10:34:13;101706.77;;;11.79;75.38
68380;BME280;57711;53.196;19.638;2022-11-13T10:37:27;101704.25;;;11.79;75.31
68380;BME280;57711;53.196;19.638;2022-11-13T10:40:30;101703.40;;;11.80;75.27
68380;BME280;57711;53.196;19.638;2022-11-13T10:43:21;101699.68;;;11.84;75.47
68380;BME280;57711;53.196;19.638;2022-11-13T10:46:23;101704.48;;;11.91;75.30
68380;BME280;57711;53.196;19.638;2022-11-13T10:52:01;101703.28;;;12.03;75.33
68380;BME280;57711;53.196;19.638;2022-11-13T10:57:58;101701.20;;;12.09;75.27
68380;BME280;57711;53.196;19.638;2022-11-13T11:00:45;101697.02;;;12.09;75.29
68380;BME280;57711;53.196;19.638;2022-11-13T11:03:33;101692.34;;;12.06;75.17
68380;BME280;57711;53.196;19.638;2022-11-13T11:06:19;101691.23;;;12.04;75.16
68380;BME280;57711;53.196;19.638;2022-11-13T11:09:25;101699.67;;;12.05;75.35
68380;BME280;57711;53.196;19.638;2022-11-13T11:12:15;101702.89;;;12.08;75.34
68380;BME280;57711;53.196;19.638;2022-11-13T11:15:20;101701.52;;;12.13;75.14
68380;BME280;57711;53.196;19.638;2022-11-13T11:21:07;101697.14;;;12.18;75.27
68380;BME280;57711;53.196;19.638;2022-11-13T11:24:15;101698.08;;;12.20;75.35
68380;BME280;57711;53.196;19.638;2022-11-13T11:27:16;101698.50;;;12.21;75.34
68380;BME280;57711;53.196;19.638;2022-11-13T11:30:19;101698.66;;;12.19;75.23
68380;BME280;57711;53.196;19.638;2022-11-13T11:36:14;101693.36;;;12.20;75.11
68380;BME280;57711;53.196;19.638;2022-11-13T11:39:25;101689.21;;;12.22;74.95
68380;BME280;57711;53.196;19.638;2022-11-13T11:42:20;101684.13;;;12.24;75.30
68380;BME280;57711;53.196;19.638;2022-11-13T11:45:15;101680.77;;;12.26;75.26
68380;BME280;57711;53.196;19.638;2022-11-13T11:48:02;101674.59;;;12.28;75.35
68380;BME280;57711;53.196;19.638;2022-11-13T11:51:02;101678.09;;;12.27;75.14
68380;BME280;57711;53.196;19.638;2022-11-13T11:54:14;101678.51;;;12.27;75.44
68380;BME280;57711;53.196;19.638;2022-11-13T11:57:35;101677.17;;;12.27;75.29
68380;BME280;57711;53.196;19.638;2022-11-13T12:00:17;101675.55;;;12.30;75.14
68380;BME280;57711;53.196;19.638;2022-11-13T12:03:20;101675.00;;;12.30;75.18
68380;BME280;57711;53.196;19.638;2022-11-13T12:09:32;101673.66;;;12.31;75.11
68380;BME280;57711;53.196;19.638;2022-11-13T12:15:30;101668.45;;;12.30;75.19
68380;BME280;57711;53.196;19.638;2022-11-13T12:18:31;101665.59;;;12.30;75.22
68380;BME280;57711;53.196;19.638;2022-11-13T12:21:25;101665.77;;;12.32;75.41
68380;BME280;57711;53.196;19.638;2022-11-13T12:30:20;101657.52;;;12.40;75.03
68380;BME280;57711;53.196;19.638;2022-11-13T12:33:28;101654.55;;;12.42;75.21
68380;BME280;57711;53.196;19.638;2022-11-13T12:36:16;101649.41;;;12.40;75.15
68380;BME280;57711;53.196;19.638;2022-11-13T12:39:04;101647.00;;;12.38;75.18
68380;BME280;57711;53.196;19.638;2022-11-13T12:42:00;101644.79;;;12.36;75.02
68380;BME280;57711;53.196;19.638;2022-11-13T12:45:19;101642.28;;;12.36;75.12
68380;BME280;57711;53.196;19.638;2022-11-13T12:51:07;101642.60;;;12.39;75.06
68380;BME280;57711;53.196;19.638;2022-11-13T12:53:55;101638.67;;;12.40;75.19
68380;BME280;57711;53.196;19.638;2022-11-13T12:56:40;101636.90;;;12.40;75.05
68380;BME280;57711;53.196;19.638;2022-11-13T12:59:39;101636.95;;;12.39;75.12
68380;BME280;57711;53.196;19.638;2022-11-13T13:02:55;101635.17;;;12.39;75.19
68380;BME280;57711;53.196;19.638;2022-11-13T13:05:56;101634.48;;;12.36;75.24
68380;BME280;57711;53.196;19.638;2022-11-13T13:12:27;101631.54;;;12.37;75.15
68380;BME280;57711;53.196;19.638;2022-11-13T13:15:30;101630.45;;;12.36;75.00
68380;BME280;57711;53.196;19.638;2022-11-13T13:21:07;101625.17;;;12.35;75.08
68380;BME280;57711;53.196;19.638;2022-11-13T13:23:53;101627.46;;;12.33;75.06
68380;BME280;57711;53.196;19.638;2022-11-13T13:26:46;101631.46;;;12.30;75.04
68380;BME280;57711;53.196;19.638;2022-11-13T13:29:32;101628.52;;;12.28;75.20
68380;BME280;57711;53.196;19.638;2022-11-13T13:33:01;101627.23;;;12.28;75.29
68380;BME280;57711;53.196;19.638;2022-11-13T13:35:32;101626.31;;;12.29;75.00
68380;BME280;57711;53.196;19.638;2022-11-13T13:45:08;101634.77;;;12.32;75.04
68380;BME280;57711;53.196;19.638;2022-11-13T13:47:55;101632.29;;;12.31;75.11
68380;BME280;57711;53.196;19.638;2022-11-13T13:50:44;101632.10;;;12.29;74.98
68380;BME280;57711;53.196;19.638;2022-11-13T13:53:33;101633.42;;;12.26;75.07
68380;BME280;57711;53.196;19.638;2022-11-13T13:56:21;101628.92;;;12.25;75.02
68380;BME280;57711;53.196;19.638;2022-11-13T13:59:24;101628.56;;;12.28;75.02
68380;BME280;57711;53.196;19.638;2022-11-13T14:02:19;101625.63;;;12.31;74.85
68380;BME280;57711;53.196;19.638;2022-11-13T14:05:24;101625.41;;;12.34;74.70
68380;BME280;57711;53.196;19.638;2022-11-13T14:08:16;101618.17;;;12.36;74.88
68380;BME280;57711;53.196;19.638;2022-11-13T14:11:15;101615.73;;;12.37;74.92
68380;BME280;57711;53.196;19.638;2022-11-13T14:14:28;101606.85;;;12.37;75.12
68380;BME280;57711;53.196;19.638;2022-11-13T14:17:22;101605.74;;;12.34;75.04
68380;BME280;57711;53.196;19.638;2022-11-13T14:20:10;101605.44;;;12.31;74.94
68380;BME280;57711;53.196;19.638;2022-11-13T14:22:56;101606.09;;;12.30;74.84
68380;BME280;57711;53.196;19.638;2022-11-13T14:25:43;101598.51;;;12.30;74.88
68380;BME280;57711;53.196;19.638;2022-11-13T14:28:31;101598.80;;;12.31;74.71
68380;BME280;57711;53.196;19.638;2022-11-13T14:31:18;101599.45;;;12.29;74.99
68380;BME280;57711;53.196;19.638;2022-11-13T14:34:15;101597.79;;;12.30;74.88
68380;BME280;57711;53.196;19.638;2022-11-13T14:37:17;101600.25;;;12.28;74.84
68380;BME280;57711;53.196;19.638;2022-11-13T14:40:29;101597.64;;;12.26;74.92
68380;BME280;57711;53.196;19.638;2022-11-13T14:43:22;101601.51;;;12.23;74.81
68380;BME280;57711;53.196;19.638;2022-11-13T14:46:25;101600.80;;;12.23;74.77
68380;BME280;57711;53.196;19.638;2022-11-13T14:49:14;101594.78;;;12.23;74.93
68380;BME280;57711;53.196;19.638;2022-11-13T14:52:22;101588.81;;;12.23;74.69
68380;BME280;57711;53.196;19.638;2022-11-13T14:55:20;101596.00;;;12.24;74.80
68380;BME280;57711;53.196;19.638;2022-11-13T14:58:11;101597.41;;;12.25;74.86
68380;BME280;57711;53.196;19.638;2022-11-13T15:01:11;101591.69;;;12.24;75.06
68380;BME280;57711;53.196;19.638;2022-11-13T15:03:58;101588.40;;;12.22;74.95
68380;BME280;57711;53.196;19.638;2022-11-13T15:06:44;101587.67;;;12.19;75.04
68380;BME280;57711;53.196;19.638;2022-11-13T15:09:30;101581.12;;;12.17;75.01
68380;BME280;57711;53.196;19.638;2022-11-13T15:12:15;101579.20;;;12.16;74.92
68380;BME280;57711;53.196;19.638;2022-11-13T15:15:01;101575.94;;;12.16;74.89
68380;BME280;57711;53.196;19.638;2022-11-13T15:17:48;101573.08;;;12.16;74.82
68380;BME280;57711;53.196;19.638;2022-11-13T15:20:35;101569.39;;;12.16;75.04
68380;BME280;57711;53.196;19.638;2022-11-13T15:23:23;101565.52;;;12.17;74.76
68380;BME280;57711;53.196;19.638;2022-11-13T15:26:10;101558.85;;;12.14;74.87
68380;BME280;57711;53.196;19.638;2022-11-13T15:28:57;101557.30;;;12.11;74.64
68380;BME280;57711;53.196;19.638;2022-11-13T15:31:44;101559.23;;;12.09;74.91